createdAt,value
2023-05-10T00:01:18.621Z,100.00
2023-05-10T00:03:45.414Z,100.00
2023-05-10T00:06:12.167Z,100.00
2023-05-10T00:08:39.003Z,100.00
2023-05-10T00:11:05.709Z,100.00
2023-05-10T00:13:33.113Z,100.00
2023-05-10T00:15:59.790Z,100.00
2023-05-10T00:18:26.757Z,100.00
2023-05-10T00:20:53.469Z,100.00
2023-05-10T00:23:20.180Z,100.00
2023-05-10T00:25:46.951Z,100.00
2023-05-10T00:28:13.614Z,100.00
2023-05-10T00:30:40.330Z,100.00
2023-05-10T00:33:07.078Z,100.00
2023-05-10T00:35:33.941Z,100.00
2023-05-10T00:38:00.655Z,100.00
2023-05-10T00:40:27.593Z,100.00
2023-05-10T00:42:54.254Z,100.00
2023-05-10T00:45:21.006Z,100.00
2023-05-10T00:47:47.770Z,100.00
2023-05-10T00:50:15.717Z,100.00
2023-05-10T00:52:43.698Z,100.00
2023-05-10T00:55:12.418Z,100.00
2023-05-10T00:57:39.734Z,100.00
2023-05-10T01:00:07.040Z,100.00
2023-05-10T01:02:35.429Z,100.00
2023-05-10T01:05:04.754Z,100.00
2023-05-10T01:07:31.476Z,100.00
2023-05-10T01:09:58.756Z,100.00
2023-05-10T01:12:26.221Z,100.00
2023-05-10T01:14:53.791Z,100.00
2023-05-10T01:17:23.972Z,100.00
2023-05-10T01:19:50.951Z,100.00
2023-05-10T01:22:44.342Z,100.00
2023-05-10T01:25:36.706Z,100.00
2023-05-10T01:28:25.045Z,100.00
2023-05-10T01:31:19.480Z,100.00
2023-05-10T01:34:09.314Z,100.00
2023-05-10T01:36:52.064Z,100.00
2023-05-10T01:39:26.930Z,100.00
2023-05-10T01:42:10.665Z,100.00
2023-05-10T01:44:49.004Z,100.00
2023-05-10T01:47:21.279Z,100.00
2023-05-10T01:49:54.203Z,100.00
2023-05-10T01:52:27.077Z,100.00
2023-05-10T01:55:05.910Z,100.00
2023-05-10T01:57:36.412Z,100.00
2023-05-10T02:00:05.670Z,100.00
2023-05-10T02:02:40.101Z,100.00
2023-05-10T02:05:08.174Z,100.00
2023-05-10T02:07:38.389Z,100.00
2023-05-10T02:10:09.214Z,100.00
2023-05-10T02:12:37.956Z,100.00
2023-05-10T02:15:08.255Z,100.00
2023-05-10T02:17:37.979Z,100.00
2023-05-10T02:20:07.658Z,100.00
2023-05-10T02:22:35.942Z,100.00
2023-05-10T02:25:04.313Z,100.00
2023-05-10T02:27:31.682Z,100.00
2023-05-10T02:29:59.505Z,100.00
2023-05-10T02:32:28.664Z,100.00
2023-05-10T02:34:56.523Z,100.00
2023-05-10T02:37:23.852Z,100.00
2023-05-10T02:39:51.816Z,100.00
2023-05-10T02:42:23.718Z,100.00
2023-05-10T02:44:53.607Z,100.00
2023-05-10T02:47:20.571Z,100.00
2023-05-10T02:49:47.579Z,100.00
2023-05-10T02:52:17.971Z,100.00
2023-05-10T02:54:51.737Z,100.00
2023-05-10T02:57:26.004Z,100.00
2023-05-10T02:59:52.780Z,100.00
2023-05-10T03:02:19.433Z,100.00
2023-05-10T03:04:46.085Z,100.00
2023-05-10T03:07:12.800Z,100.00
2023-05-10T03:09:40.324Z,100.00
2023-05-10T03:12:22.104Z,100.00
2023-05-10T03:15:03.834Z,100.00
2023-05-10T03:17:38.444Z,100.00
2023-05-10T03:20:10.811Z,100.00
2023-05-10T03:22:41.907Z,100.00
2023-05-10T03:25:11.924Z,100.00
2023-05-10T03:27:41.931Z,100.00
2023-05-10T03:30:11.396Z,100.00
2023-05-10T03:32:38.575Z,100.00
2023-05-10T03:35:13.351Z,100.00
2023-05-10T03:37:40.274Z,100.00
2023-05-10T03:40:07.486Z,100.00
2023-05-10T03:42:34.249Z,100.00
2023-05-10T03:45:00.914Z,100.00
2023-05-10T03:47:27.622Z,100.00
2023-05-10T03:49:54.312Z,100.00
2023-05-10T03:52:20.943Z,100.00
2023-05-10T03:54:47.611Z,100.00
2023-05-10T03:57:14.201Z,100.00
2023-05-10T03:59:40.892Z,100.00
2023-05-10T04:02:07.535Z,100.00
2023-05-10T04:04:34.270Z,100.00
2023-05-10T04:07:00.841Z,100.00
2023-05-10T04:09:27.852Z,100.00
2023-05-10T04:11:54.431Z,100.00
2023-05-10T04:14:21.064Z,100.00
2023-05-10T04:16:47.760Z,100.00
2023-05-10T04:19:14.545Z,100.00
2023-05-10T04:21:41.252Z,100.00
2023-05-10T04:24:08.009Z,100.00
2023-05-10T04:26:34.606Z,100.00
2023-05-10T04:29:01.213Z,100.00
2023-05-10T04:31:28.917Z,100.00
2023-05-10T04:33:55.762Z,100.00
2023-05-10T04:36:22.487Z,100.00
2023-05-10T04:38:49.190Z,100.00
2023-05-10T04:41:15.831Z,100.00
2023-05-10T04:43:42.443Z,100.00
2023-05-10T04:46:09.127Z,100.00
2023-05-10T04:48:35.916Z,100.00
2023-05-10T04:51:04.506Z,100.00
2023-05-10T04:53:31.196Z,100.00
2023-05-10T04:55:57.833Z,100.00
2023-05-10T04:58:24.486Z,100.00
2023-05-10T05:00:51.185Z,100.00
2023-05-10T05:03:17.922Z,100.00
2023-05-10T05:05:45.637Z,100.00
2023-05-10T05:08:12.338Z,100.00
2023-05-10T05:10:38.957Z,100.00
2023-05-10T05:13:05.645Z,100.00
2023-05-10T05:15:32.378Z,100.00
2023-05-10T05:17:59.141Z,100.00
2023-05-10T05:20:25.791Z,100.00
2023-05-10T05:22:52.496Z,100.00
2023-05-10T05:25:19.210Z,100.00
2023-05-10T05:27:45.995Z,100.00
2023-05-10T05:30:13.542Z,100.00
2023-05-10T05:32:40.189Z,100.00
2023-05-10T05:35:07.162Z,100.00
2023-05-10T05:37:33.837Z,100.00
2023-05-10T05:40:02.418Z,100.00
2023-05-10T05:42:29.096Z,100.00
2023-05-10T05:44:55.790Z,100.00
2023-05-10T05:47:22.433Z,100.00
2023-05-10T05:49:49.177Z,100.00
2023-05-10T05:52:15.866Z,100.00
2023-05-10T05:54:42.515Z,100.00
2023-05-10T05:57:09.912Z,100.00
2023-05-10T05:59:36.668Z,100.00
2023-05-10T06:02:03.383Z,100.00
2023-05-10T06:04:30.088Z,100.00
2023-05-10T06:06:56.779Z,100.00
2023-05-10T06:09:25.520Z,100.00
2023-05-10T06:11:52.205Z,100.00
2023-05-10T06:14:21.525Z,100.00
2023-05-10T06:16:48.426Z,100.00
2023-05-10T06:19:15.209Z,100.00
2023-05-10T06:21:41.822Z,100.00
2023-05-10T06:24:08.482Z,100.00
2023-05-10T06:26:35.215Z,100.00
2023-05-10T06:29:02.341Z,100.00
2023-05-10T06:31:29.069Z,100.00
2023-05-10T06:33:56.812Z,100.00
2023-05-10T06:36:25.594Z,100.00
2023-05-10T06:38:52.252Z,100.00
2023-05-10T06:41:18.922Z,100.00
2023-05-10T06:43:45.665Z,100.00
2023-05-10T06:46:12.369Z,100.00
2023-05-10T06:48:39.074Z,100.00
2023-05-10T06:51:05.727Z,100.00
2023-05-10T06:53:32.319Z,100.00
2023-05-10T06:55:58.971Z,100.00
2023-05-10T06:58:25.688Z,100.00
2023-05-10T07:00:52.384Z,100.00
2023-05-10T07:03:19.099Z,100.00
2023-05-10T07:05:45.723Z,100.00
2023-05-10T07:08:12.434Z,100.00
2023-05-10T07:10:39.077Z,100.00
2023-05-10T07:13:05.845Z,100.00
2023-05-10T07:15:32.630Z,100.00
2023-05-10T07:17:59.486Z,100.00
2023-05-10T07:20:26.273Z,100.00
2023-05-10T07:22:53.011Z,100.00
2023-05-10T07:25:19.837Z,100.00
2023-05-10T07:27:46.992Z,100.00
2023-05-10T07:30:14.104Z,100.00
2023-05-10T07:32:42.725Z,100.00
2023-05-10T07:35:09.726Z,100.00
2023-05-10T07:37:36.919Z,100.00
2023-05-10T07:40:03.728Z,100.00
2023-05-10T07:42:30.463Z,100.00
2023-05-10T07:44:57.175Z,100.00
2023-05-10T07:47:24.432Z,100.00
2023-05-10T07:49:51.349Z,100.00
2023-05-10T07:52:18.083Z,100.00
2023-05-10T07:54:45.621Z,100.00
2023-05-10T07:57:12.377Z,100.00
2023-05-10T07:59:39.017Z,100.00
2023-05-10T08:02:05.920Z,100.00
2023-05-10T08:04:33.049Z,100.00
2023-05-10T08:06:59.891Z,100.00
2023-05-10T08:09:26.501Z,100.00
2023-05-10T08:11:53.194Z,100.00
2023-05-10T08:14:20.082Z,100.00
2023-05-10T08:16:46.743Z,100.00
2023-05-10T08:19:13.533Z,100.00
2023-05-10T08:21:41.462Z,100.00
2023-05-10T08:24:08.315Z,100.00
2023-05-10T08:26:34.939Z,100.00
2023-05-10T08:29:01.668Z,100.00
2023-05-10T08:31:28.399Z,100.00
2023-05-10T08:33:55.107Z,100.00
2023-05-10T08:36:22.951Z,100.00
2023-05-10T08:38:53.216Z,100.00
2023-05-10T08:41:25.499Z,100.00
2023-05-10T08:43:53.532Z,100.00
2023-05-10T08:46:21.568Z,100.00
2023-05-10T08:48:50.524Z,100.00
2023-05-10T08:51:20.186Z,100.00
2023-05-10T08:53:47.007Z,100.00
2023-05-10T08:56:14.193Z,100.00
2023-05-10T08:58:40.819Z,100.00
2023-05-10T09:01:08.337Z,100.00
2023-05-10T09:03:35.640Z,100.00
2023-05-10T09:06:02.328Z,100.00
2023-05-10T09:08:29.899Z,100.00
2023-05-10T09:10:56.571Z,100.00
2023-05-10T09:13:24.644Z,100.00
2023-05-10T09:15:52.963Z,100.00
2023-05-10T09:18:19.858Z,100.00
2023-05-10T09:20:46.919Z,100.00
2023-05-10T09:23:13.622Z,100.00
2023-05-10T09:25:42.550Z,100.00
2023-05-10T09:28:10.570Z,100.00
2023-05-10T09:30:37.648Z,100.00
2023-05-10T09:33:04.984Z,100.00
2023-05-10T09:35:34.001Z,100.00
2023-05-10T09:38:05.238Z,100.00
2023-05-10T09:40:32.451Z,100.00
2023-05-10T09:43:04.613Z,100.00
2023-05-10T09:45:36.199Z,100.00
2023-05-10T09:48:05.104Z,100.00
2023-05-10T09:50:32.113Z,100.00
2023-05-10T09:53:01.239Z,100.00
2023-05-10T09:55:37.165Z,100.00
2023-05-10T09:58:05.383Z,100.00
2023-05-10T10:00:39.894Z,100.00
2023-05-10T10:03:07.235Z,100.00
2023-05-10T10:05:35.927Z,97.65
2023-05-10T10:08:07.021Z,100.00
2023-05-10T10:10:34.647Z,100.00
2023-05-10T10:13:02.459Z,97.63
2023-05-10T10:15:29.416Z,95.41
2023-05-10T10:17:56.246Z,93.16
2023-05-10T10:20:23.849Z,94.37
2023-05-10T10:22:50.919Z,94.43
2023-05-10T10:25:19.676Z,92.63
2023-05-10T10:27:52.289Z,81.64
2023-05-10T10:30:30.929Z,77.44
2023-05-10T10:33:27.945Z,75.03
2023-05-10T10:35:58.921Z,73.34
2023-05-10T10:38:25.918Z,71.53
2023-05-10T10:41:29.473Z,68.83
2023-05-10T10:44:27.798Z,68.50
2023-05-10T10:47:13.063Z,60.76
2023-05-10T10:49:43.012Z,62.20
2023-05-10T10:52:18.752Z,58.51
2023-05-10T10:54:59.575Z,58.27
2023-05-10T10:57:27.620Z,56.72
2023-05-10T11:00:20.554Z,55.19
2023-05-10T11:02:52.396Z,55.91
2023-05-10T11:05:35.445Z,55.87
2023-05-10T11:08:11.985Z,60.51
2023-05-10T11:10:39.452Z,58.47
2023-05-10T11:13:08.149Z,62.31
2023-05-10T11:15:40.849Z,74.59
2023-05-10T11:18:22.195Z,85.55
2023-05-10T11:21:10.237Z,89.96
2023-05-10T11:23:57.471Z,93.28
2023-05-10T11:26:27.169Z,97.32
2023-05-10T11:28:56.343Z,97.85
2023-05-10T11:31:24.099Z,99.30
2023-05-10T11:33:53.554Z,98.42
2023-05-10T11:36:26.870Z,100.00
2023-05-10T11:38:54.449Z,98.45
2023-05-10T11:41:24.808Z,100.00
2023-05-10T11:43:55.422Z,95.44
2023-05-10T11:46:24.429Z,93.65
2023-05-10T11:48:53.084Z,93.18
2023-05-10T11:51:24.191Z,97.63
2023-05-10T11:53:53.512Z,98.44
2023-05-10T11:56:21.666Z,99.09
2023-05-10T11:58:55.346Z,100.00
2023-05-10T12:01:22.399Z,100.00
2023-05-10T12:03:51.091Z,100.00
2023-05-10T12:06:19.909Z,100.00
2023-05-10T12:08:48.490Z,100.00
2023-05-10T12:11:16.586Z,100.00
2023-05-10T12:13:48.447Z,100.00
2023-05-10T12:16:21.124Z,100.00
2023-05-10T12:18:52.194Z,100.00
2023-05-10T12:21:21.047Z,100.00
2023-05-10T12:23:50.809Z,100.00
2023-05-10T12:26:17.990Z,100.00
2023-05-10T12:28:45.384Z,100.00
2023-05-10T12:31:12.107Z,100.00
2023-05-10T12:33:42.605Z,100.00
2023-05-10T12:36:14.357Z,100.00
2023-05-10T12:38:44.326Z,100.00
2023-05-10T12:41:13.138Z,100.00
2023-05-10T12:43:40.827Z,100.00
2023-05-10T12:46:08.987Z,100.00
2023-05-10T12:48:36.850Z,100.00
2023-05-10T12:51:04.953Z,100.00
2023-05-10T12:53:32.024Z,100.00
2023-05-10T12:55:58.740Z,100.00
2023-05-10T12:58:34.826Z,88.55
2023-05-10T13:01:04.022Z,82.33
2023-05-10T13:03:31.446Z,71.46
2023-05-10T13:05:58.300Z,66.44
2023-05-10T13:08:25.083Z,60.19
2023-05-10T13:10:51.744Z,56.26
2023-05-10T13:13:19.230Z,55.72
2023-05-10T13:15:45.946Z,56.36
2023-05-10T13:18:12.697Z,53.72
2023-05-10T13:20:39.512Z,51.47
2023-05-10T13:23:06.233Z,51.64
2023-05-10T13:25:32.919Z,53.77
2023-05-10T13:27:59.573Z,53.60
2023-05-10T13:30:26.244Z,54.20
2023-05-10T13:32:53.033Z,53.23
2023-05-10T13:35:19.731Z,52.81
2023-05-10T13:37:46.482Z,52.89
2023-05-10T13:40:13.271Z,52.32
2023-05-10T13:42:40.647Z,53.20
2023-05-10T13:45:07.746Z,52.01
2023-05-10T13:47:34.481Z,51.19
2023-05-10T13:50:02.026Z,52.08
2023-05-10T13:52:28.688Z,52.81
2023-05-10T13:54:58.296Z,53.16
2023-05-10T13:57:25.095Z,54.98
2023-05-10T13:59:52.469Z,53.84
2023-05-10T14:02:19.084Z,57.26
2023-05-10T14:04:45.763Z,55.69
2023-05-10T14:07:12.369Z,56.76
2023-05-10T14:09:39.009Z,58.27
2023-05-10T14:12:05.847Z,59.39
2023-05-10T14:14:32.555Z,58.05
2023-05-10T14:17:00.316Z,58.29
2023-05-10T14:19:28.162Z,59.04
2023-05-10T14:21:54.804Z,59.71
2023-05-10T14:24:21.398Z,58.81
2023-05-10T14:26:48.079Z,60.36
2023-05-10T14:29:14.752Z,58.71
2023-05-10T14:31:41.960Z,60.17
2023-05-10T14:34:08.785Z,62.52
2023-05-10T14:36:35.421Z,64.61
2023-05-10T14:39:02.096Z,66.87
2023-05-10T14:41:28.960Z,69.75
2023-05-10T14:43:55.612Z,76.23
2023-05-10T14:46:22.362Z,78.96
2023-05-10T14:48:48.961Z,84.75
2023-05-10T14:51:15.543Z,98.32
2023-05-10T14:53:42.272Z,100.00
2023-05-10T14:56:08.882Z,100.00
2023-05-10T14:58:35.526Z,100.00
2023-05-10T15:01:02.219Z,100.00
2023-05-10T15:03:29.389Z,100.00
2023-05-10T15:05:58.530Z,100.00
2023-05-10T15:08:28.034Z,100.00
2023-05-10T15:10:56.639Z,100.00
2023-05-10T15:13:23.431Z,100.00
2023-05-10T15:15:50.213Z,100.00
2023-05-10T15:18:17.617Z,100.00
2023-05-10T15:20:44.314Z,100.00
2023-05-10T15:23:10.961Z,100.00
2023-05-10T15:25:38.501Z,100.00
2023-05-10T15:28:05.568Z,100.00
2023-05-10T15:30:32.338Z,100.00
2023-05-10T15:32:59.305Z,100.00
2023-05-10T15:35:27.765Z,100.00
2023-05-10T15:37:54.441Z,100.00
2023-05-10T15:40:21.137Z,100.00
2023-05-10T15:42:47.919Z,100.00
2023-05-10T15:45:16.306Z,100.00
2023-05-10T15:47:43.183Z,100.00
2023-05-10T15:50:10.606Z,100.00
2023-05-10T15:52:37.267Z,100.00
2023-05-10T15:55:04.250Z,100.00
2023-05-10T15:57:31.144Z,100.00
2023-05-10T15:59:58.244Z,100.00
2023-05-10T16:02:25.087Z,100.00
2023-05-10T16:04:51.945Z,100.00
2023-05-10T16:07:18.818Z,100.00
2023-05-10T16:09:45.844Z,100.00
2023-05-10T16:12:12.561Z,100.00
2023-05-10T16:14:39.233Z,100.00
2023-05-10T16:17:06.059Z,100.00
2023-05-10T16:19:32.983Z,100.00
2023-05-10T16:21:59.692Z,100.00
2023-05-10T16:24:26.429Z,100.00
2023-05-10T16:26:53.640Z,100.00
2023-05-10T16:29:20.314Z,100.00
2023-05-10T16:31:47.203Z,100.00
2023-05-10T16:34:13.980Z,100.00
2023-05-10T16:36:41.129Z,100.00
2023-05-10T16:39:09.725Z,100.00
2023-05-10T16:41:36.469Z,100.00
2023-05-10T16:44:03.743Z,100.00
2023-05-10T16:46:30.713Z,100.00
2023-05-10T16:48:57.665Z,100.00
2023-05-10T16:51:24.407Z,100.00
2023-05-10T16:53:51.048Z,100.00
2023-05-10T16:56:22.265Z,100.00
2023-05-10T16:58:51.715Z,100.00
2023-05-10T17:01:18.491Z,100.00
2023-05-10T17:03:45.456Z,100.00
2023-05-10T17:06:12.607Z,100.00
2023-05-10T17:08:39.356Z,100.00
2023-05-10T17:11:05.985Z,100.00
2023-05-10T17:13:32.658Z,100.00
2023-05-10T17:16:03.593Z,100.00
2023-05-10T17:18:30.686Z,100.00
2023-05-10T17:20:57.415Z,100.00
2023-05-10T17:23:24.118Z,100.00
2023-05-10T17:25:50.898Z,100.00
2023-05-10T17:28:17.661Z,100.00
2023-05-10T17:30:44.532Z,100.00
2023-05-10T17:33:11.341Z,100.00
2023-05-10T17:35:38.068Z,100.00
2023-05-10T17:38:04.779Z,100.00
2023-05-10T17:40:32.029Z,100.00
2023-05-10T17:42:58.805Z,100.00
2023-05-10T17:45:26.267Z,100.00
2023-05-10T17:47:53.356Z,100.00
2023-05-10T17:50:20.079Z,100.00
2023-05-10T17:52:46.727Z,100.00
2023-05-10T17:55:13.466Z,100.00
2023-05-10T17:57:40.114Z,100.00
2023-05-10T18:00:08.800Z,100.00
2023-05-10T18:02:36.888Z,100.00
2023-05-10T18:05:04.569Z,100.00
2023-05-10T18:07:31.503Z,100.00
2023-05-10T18:09:58.612Z,100.00
2023-05-10T18:12:25.229Z,100.00
2023-05-10T18:14:51.919Z,100.00
2023-05-10T18:17:18.752Z,100.00
2023-05-10T18:19:45.460Z,100.00
2023-05-10T18:22:12.681Z,100.00
2023-05-10T18:24:40.266Z,100.00
2023-05-10T18:27:08.885Z,100.00
2023-05-10T18:29:36.995Z,100.00
2023-05-10T18:32:03.914Z,100.00
2023-05-10T18:34:30.742Z,100.00
2023-05-10T18:36:57.695Z,100.00
2023-05-10T18:39:25.047Z,100.00
2023-05-10T18:41:51.900Z,100.00
2023-05-10T18:44:19.208Z,100.00
2023-05-10T18:46:46.428Z,100.00
2023-05-10T18:49:13.442Z,100.00
2023-05-10T18:51:40.151Z,100.00
2023-05-10T18:54:07.413Z,100.00
2023-05-10T18:56:34.231Z,100.00
2023-05-10T18:59:00.970Z,100.00
2023-05-10T19:01:27.838Z,100.00
2023-05-10T19:03:54.761Z,100.00
2023-05-10T19:06:21.538Z,100.00
2023-05-10T19:08:48.261Z,100.00
2023-05-10T19:11:14.896Z,100.00
2023-05-10T19:13:41.633Z,100.00
2023-05-10T19:16:14.280Z,100.00
2023-05-10T19:18:41.159Z,100.00
2023-05-10T19:21:09.839Z,100.00
2023-05-10T19:23:39.672Z,100.00
2023-05-10T19:26:06.398Z,100.00
2023-05-10T19:28:34.227Z,100.00
2023-05-10T19:31:01.774Z,100.00
2023-05-10T19:33:28.877Z,100.00
2023-05-10T19:35:55.758Z,100.00
2023-05-10T19:38:22.977Z,100.00
2023-05-10T19:40:57.934Z,100.00
2023-05-10T19:43:28.508Z,100.00
2023-05-10T19:45:59.088Z,100.00
2023-05-10T19:48:26.393Z,100.00
2023-05-10T19:50:53.968Z,100.00
2023-05-10T19:53:20.681Z,100.00
2023-05-10T19:55:47.576Z,100.00
2023-05-10T19:58:14.669Z,100.00
2023-05-10T20:00:41.389Z,100.00
2023-05-10T20:03:09.313Z,100.00
2023-05-10T20:05:36.202Z,100.00
2023-05-10T20:08:02.993Z,100.00
2023-05-10T20:10:29.834Z,100.00
2023-05-10T20:12:58.578Z,100.00
2023-05-10T20:15:25.385Z,100.00
2023-05-10T20:17:55.561Z,100.00
2023-05-10T20:20:22.478Z,100.00
2023-05-10T20:22:49.635Z,100.00
2023-05-10T20:25:17.707Z,100.00
2023-05-10T20:27:44.962Z,100.00
2023-05-10T20:30:12.112Z,100.00
2023-05-10T20:32:39.550Z,100.00
2023-05-10T20:35:07.126Z,100.00
2023-05-10T20:37:33.921Z,100.00
2023-05-10T20:40:00.648Z,100.00
2023-05-10T20:42:27.366Z,100.00
2023-05-10T20:44:54.112Z,100.00
2023-05-10T20:47:23.335Z,100.00
2023-05-10T20:49:50.382Z,100.00
2023-05-10T20:52:17.246Z,100.00
2023-05-10T20:54:43.988Z,100.00
2023-05-10T20:57:12.795Z,100.00
2023-05-10T20:59:39.463Z,100.00
2023-05-10T21:02:06.819Z,100.00
2023-05-10T21:04:33.566Z,100.00
2023-05-10T21:07:00.282Z,100.00
2023-05-10T21:09:26.892Z,100.00
2023-05-10T21:11:53.673Z,100.00
2023-05-10T21:14:20.558Z,100.00
2023-05-10T21:16:47.281Z,100.00
2023-05-10T21:19:13.905Z,100.00
2023-05-10T21:21:40.666Z,100.00
2023-05-10T21:24:08.530Z,100.00
2023-05-10T21:26:35.214Z,100.00
2023-05-10T21:29:02.648Z,100.00
2023-05-10T21:31:29.700Z,100.00
2023-05-10T21:33:57.108Z,100.00
2023-05-10T21:36:24.735Z,100.00
2023-05-10T21:38:51.502Z,100.00
2023-05-10T21:41:18.235Z,100.00
2023-05-10T21:43:44.933Z,100.00
2023-05-10T21:46:13.435Z,100.00
2023-05-10T21:48:40.243Z,100.00
2023-05-10T21:51:07.360Z,100.00
2023-05-10T21:53:35.871Z,100.00
2023-05-10T21:56:02.611Z,100.00
2023-05-10T21:58:29.306Z,100.00
2023-05-10T22:00:56.103Z,100.00
2023-05-10T22:03:22.963Z,100.00
2023-05-10T22:05:49.793Z,100.00
2023-05-10T22:08:16.488Z,100.00
2023-05-10T22:10:43.177Z,100.00
2023-05-10T22:13:09.808Z,100.00
2023-05-10T22:15:36.765Z,100.00
2023-05-10T22:18:03.686Z,100.00
2023-05-10T22:20:30.472Z,100.00
2023-05-10T22:22:57.356Z,100.00
2023-05-10T22:25:24.011Z,100.00
2023-05-10T22:27:50.730Z,100.00
2023-05-10T22:30:17.838Z,100.00
2023-05-10T22:32:44.945Z,100.00
2023-05-10T22:35:11.687Z,100.00
2023-05-10T22:37:38.386Z,100.00
2023-05-10T22:40:05.969Z,100.00
2023-05-10T22:42:33.199Z,100.00
2023-05-10T22:44:59.874Z,100.00
2023-05-10T22:47:26.576Z,100.00
2023-05-10T22:49:55.227Z,100.00
2023-05-10T22:52:21.905Z,100.00
2023-05-10T22:54:48.491Z,100.00
2023-05-10T22:57:16.060Z,100.00
2023-05-10T22:59:43.065Z,100.00
2023-05-10T23:02:10.044Z,100.00
2023-05-10T23:04:37.075Z,100.00
2023-05-10T23:07:03.745Z,100.00
2023-05-10T23:09:30.333Z,100.00
2023-05-10T23:11:57.400Z,100.00
2023-05-10T23:14:24.138Z,100.00
2023-05-10T23:16:50.874Z,100.00
2023-05-10T23:19:17.699Z,100.00
2023-05-10T23:21:44.328Z,100.00
2023-05-10T23:24:11.678Z,100.00
2023-05-10T23:26:38.339Z,100.00
2023-05-10T23:29:05.034Z,100.00
2023-05-10T23:31:31.745Z,100.00
2023-05-10T23:33:58.440Z,100.00
2023-05-10T23:36:25.075Z,100.00
2023-05-10T23:38:51.688Z,100.00
2023-05-10T23:41:18.405Z,100.00
2023-05-10T23:43:45.057Z,100.00
2023-05-10T23:46:11.793Z,100.00
2023-05-10T23:48:38.439Z,100.00
2023-05-10T23:51:05.194Z,100.00
2023-05-10T23:53:31.881Z,100.00
2023-05-10T23:55:58.599Z,100.00
2023-05-10T23:58:25.208Z,100.00
